Time;durP1;ratioP1;P1;durP2;ratioP2;P2;SDS_P1;SDS_P2;PMS_P1;PMS_P2;Temp;Humidity;BMP_temperature;BMP_pressure;BME280_temperature;BME280_humidity;BME280_pressure;Samples;Min_cycle;Max_cycle;Signal;HPM_P1;HPM_P2
2021/08/26 00:06:55;;;;;;;6.43;1.77;;;;;;;15.20;100.00;101934.25;5017158;28;20069;-67
2021/08/26 00:09:23;;;;;;;7.05;2.13;;;;;;;15.15;100.00;101933.53;5015505;28;20097;-67
2021/08/26 00:11:52;;;;;;;7.18;1.90;;;;;;;15.11;100.00;101930.06;5018232;28;20070;-67
2021/08/26 00:14:20;;;;;;;8.95;2.63;;;;;;;15.11;100.00;101916.63;5013900;28;20061;-67
2021/08/26 00:16:49;;;;;;;7.22;1.95;;;;;;;15.08;100.00;101916.72;5014741;28;21330;-67
2021/08/26 00:19:18;;;;;;;5.47;2.20;;;;;;;15.04;100.00;101919.59;5016157;28;20065;-67
2021/08/26 00:21:46;;;;;;;6.93;2.45;;;;;;;14.99;100.00;101922.41;5014734;28;20048;-67
2021/08/26 00:24:14;;;;;;;8.07;2.47;;;;;;;14.98;100.00;101917.97;5016139;28;20120;-67
2021/08/26 00:26:42;;;;;;;8.25;2.42;;;;;;;14.99;100.00;101913.47;5015424;28;20069;-67
2021/08/26 00:29:10;;;;;;;11.38;2.72;;;;;;;14.93;100.00;101906.50;5016495;28;20460;-67
2021/08/26 00:31:37;;;;;;;12.10;3.10;;;;;;;14.93;100.00;101910.06;5013798;28;20132;-67
2021/08/26 00:34:06;;;;;;;8.88;2.20;;;;;;;14.90;100.00;101907.47;5014595;28;20081;-67
2021/08/26 00:36:34;;;;;;;9.77;2.60;;;;;;;14.86;100.00;101904.94;5016925;28;20108;-67
2021/08/26 00:39:02;;;;;;;8.75;2.53;;;;;;;14.89;100.00;101903.03;5014700;28;20065;-67
2021/08/26 00:41:30;;;;;;;12.50;2.45;;;;;;;14.97;100.00;101900.09;5016689;28;20065;-67
2021/08/26 00:43:58;;;;;;;9.32;2.67;;;;;;;15.02;100.00;101895.44;5011625;28;20388;-67
2021/08/26 00:46:26;;;;;;;9.88;3.35;;;;;;;15.02;100.00;101899.94;5015430;28;20072;-68
2021/08/26 00:48:54;;;;;;;11.38;2.97;;;;;;;15.06;100.00;101901.59;5013846;28;20152;-68
2021/08/26 00:51:23;;;;;;;18.50;2.78;;;;;;;15.06;100.00;101890.84;5017109;28;20061;-68
2021/08/26 00:53:53;;;;;;;9.25;3.35;;;;;;;15.08;100.00;101884.47;5014519;28;20471;-68
2021/08/26 00:56:21;;;;;;;10.23;2.95;;;;;;;15.13;99.47;101889.69;5015696;28;20120;-68
2021/08/26 00:58:50;;;;;;;11.70;3.13;;;;;;;15.13;99.32;101889.69;5017564;28;20576;-68
2021/08/26 01:01:27;;;;;;;9.95;3.28;;;;;;;15.13;98.24;101887.88;5014805;28;20114;-68
2021/08/26 01:04:01;;;;;;;14.60;3.45;;;;;;;15.16;98.44;101892.28;5012579;28;20137;-68
2021/08/26 01:06:41;;;;;;;19.95;3.72;;;;;;;15.18;98.13;101884.16;5015262;28;20473;-67
2021/08/26 01:09:14;;;;;;;12.40;3.60;;;;;;;15.19;95.94;101888.59;5015031;28;20142;-68
2021/08/26 01:11:44;;;;;;;12.38;3.22;;;;;;;15.18;96.30;101881.47;5014820;28;20472;-68
2021/08/26 01:14:16;;;;;;;10.77;3.72;;;;;;;15.20;95.69;101885.84;5014402;28;20076;-68
2021/08/26 01:16:44;;;;;;;10.70;3.80;;;;;;;15.20;94.50;101872.41;5016277;28;20076;-68
2021/08/26 01:19:12;;;;;;;9.95;3.65;;;;;;;15.22;93.67;101875.03;5017216;28;20065;-68
2021/08/26 01:21:41;;;;;;;12.38;3.75;;;;;;;15.25;92.47;101869.56;5014908;28;20424;-67
2021/08/26 01:24:14;;;;;;;11.38;3.40;;;;;;;15.24;91.85;101865.16;5011705;28;20428;-68
2021/08/26 01:26:47;;;;;;;11.57;4.28;;;;;;;15.26;91.01;101864.13;5015922;28;20368;-68
2021/08/26 01:29:16;;;;;;;14.15;3.92;;;;;;;15.26;91.16;101865.97;5015108;28;20061;-68
2021/08/26 01:31:45;;;;;;;10.68;3.35;;;;;;;15.24;89.05;101867.84;5013515;28;20067;-68
2021/08/26 01:34:14;;;;;;;10.13;3.42;;;;;;;15.20;90.62;101869.72;5012982;28;20061;-68
2021/08/26 01:36:42;;;;;;;15.40;4.30;;;;;;;15.19;89.93;101865.28;5015695;28;20062;-67
2021/08/26 01:39:12;;;;;;;13.07;3.90;;;;;;;15.19;89.85;101861.69;5011833;28;20844;-67
2021/08/26 01:41:41;;;;;;;12.18;3.83;;;;;;;15.15;90.36;101858.25;5016989;28;20069;-69
2021/08/26 01:44:11;;;;;;;10.38;3.70;;;;;;;15.11;90.27;101849.41;5019069;28;20080;-67
2021/08/26 01:46:39;;;;;;;10.88;3.47;;;;;;;15.12;89.36;101853.88;5014567;28;20069;-67
2021/08/26 01:49:07;;;;;;;15.02;3.90;;;;;;;15.14;88.61;101851.13;5016640;28;20072;-67
2021/08/26 01:51:35;;;;;;;13.65;4.38;;;;;;;15.13;89.58;101852.06;5016646;28;20065;-67
2021/08/26 01:54:02;;;;;;;12.60;3.35;;;;;;;15.13;90.44;101854.75;5015658;28;20061;-67
2021/08/26 01:56:30;;;;;;;14.35;3.40;;;;;;;15.13;90.12;101854.75;5016332;28;20232;-67
2021/08/26 01:58:58;;;;;;;11.38;3.47;;;;;;;15.09;90.78;101853.09;5014173;28;20336;-67
2021/08/26 02:01:27;;;;;;;12.50;3.33;;;;;;;15.09;90.43;101853.09;5016107;28;20119;-69
2021/08/26 02:03:55;;;;;;;11.15;3.35;;;;;;;15.11;90.79;101868.22;5017428;28;20056;-68
2021/08/26 02:06:23;;;;;;;17.13;4.47;;;;;;;15.08;88.74;101854.03;5014193;28;20069;-69
2021/08/26 02:08:51;;;;;;;15.15;4.60;;;;;;;15.05;88.42;101851.44;5011335;28;20344;-68
2021/08/26 02:11:19;;;;;;;15.13;4.90;;;;;;;14.99;89.38;101844.47;5016216;28;20365;-68
2021/08/26 02:13:46;;;;;;;15.13;4.57;;;;;;;15.00;89.19;101848.94;5012195;28;20072;-69
2021/08/26 02:16:15;;;;;;;21.92;4.88;;;;;;;14.96;90.68;101849.94;5016474;28;20120;-68
2021/08/26 02:18:45;;;;;;;15.80;4.40;;;;;;;14.97;88.98;101832.91;5019397;28;20072;-68
2021/08/26 02:21:13;;;;;;;13.00;5.07;;;;;;;14.97;88.37;101840.09;5019030;28;20391;-68
2021/08/26 02:23:41;;;;;;;16.90;4.72;;;;;;;15.00;88.42;101848.03;5017348;28;21894;-68
2021/08/26 02:26:09;;;;;;;15.00;4.43;;;;;;;14.98;87.70;101849.91;5017744;28;20061;-68
2021/08/26 02:28:36;;;;;;;18.00;4.65;;;;;;;14.97;86.62;101832.91;5018513;28;20120;-68
2021/08/26 02:31:04;;;;;;;15.95;5.22;;;;;;;14.98;86.14;101834.66;5019030;28;20092;-68
2021/08/26 02:33:32;;;;;;;15.52;4.97;;;;;;;14.98;84.97;101839.16;5021984;28;20151;-68
2021/08/26 02:36:01;;;;;;;16.75;4.90;;;;;;;14.97;84.92;101840.09;5019306;28;20061;-68
2021/08/26 02:38:29;;;;;;;14.95;4.47;;;;;;;14.99;83.94;101844.47;5015468;28;20152;-68
2021/08/26 02:40:57;;;;;;;20.38;4.35;;;;;;;14.94;84.70;101836.56;5020720;28;21569;-68
2021/08/26 02:43:25;;;;;;;16.08;4.25;;;;;;;14.93;84.65;101839.31;5015639;28;20069;-68
2021/08/26 02:45:53;;;;;;;16.02;3.78;;;;;;;14.96;83.55;101843.72;5014820;28;20172;-68
2021/08/26 02:48:20;;;;;;;18.52;4.75;;;;;;;15.04;82.95;101844.31;5017672;28;20136;-69
2021/08/26 02:50:48;;;;;;;15.82;4.80;;;;;;;14.99;82.09;101841.78;5015350;28;20065;-68
2021/08/26 02:53:17;;;;;;;11.27;4.07;;;;;;;14.90;83.10;101834.06;5014591;28;20514;-67
2021/08/26 02:55:45;;;;;;;18.30;4.28;;;;;;;14.92;83.45;101840.25;5015531;28;20068;-67
2021/08/26 02:58:13;;;;;;;12.73;3.83;;;;;;;14.89;83.55;101838.53;5020613;28;20065;-67
2021/08/26 03:00:41;;;;;;;14.70;4.03;;;;;;;14.84;83.55;101835.13;5018081;28;20129;-67
2021/08/26 03:03:10;;;;;;;11.85;3.58;;;;;;;14.88;82.91;101839.50;5011738;28;20440;-67
2021/08/26 03:05:38;;;;;;;18.17;3.83;;;;;;;14.84;83.49;101836.94;5016007;28;20322;-66
2021/08/26 03:08:06;;;;;;;11.90;4.03;;;;;;;14.82;83.11;101833.44;5017602;28;20073;-66
2021/08/26 03:10:36;;;;;;;15.57;4.93;;;;;;;14.79;83.60;101837.09;5019357;28;20046;-66
2021/08/26 03:13:04;;;;;;;12.25;4.00;;;;;;;14.77;83.67;101835.41;5013299;28;20061;-66
2021/08/26 03:15:32;;;;;;;10.93;3.80;;;;;;;14.77;83.46;101841.66;5018083;28;20057;-66
2021/08/26 03:18:00;;;;;;;14.93;3.75;;;;;;;14.75;81.38;101830.09;5016732;28;20112;-66
2021/08/26 03:20:28;;;;;;;15.60;4.25;;;;;;;14.77;81.33;101835.41;5012563;28;20061;-66
2021/08/26 03:22:56;;;;;;;16.90;4.28;;;;;;;14.78;79.69;101834.47;5015572;28;20774;-67
2021/08/26 03:25:25;;;;;;;13.23;4.05;;;;;;;14.74;79.98;101831.91;5017345;28;20088;-66
2021/08/26 03:27:56;;;;;;;14.73;3.63;;;;;;;14.74;79.45;101828.31;5016812;28;20061;-67
2021/08/26 03:30:24;;;;;;;16.55;4.18;;;;;;;14.71;79.82;101825.72;5015149;28;20111;-67
2021/08/26 03:32:54;;;;;;;8.88;3.13;;;;;;;14.69;79.73;101825.81;5012834;28;20093;-66
2021/08/26 03:35:22;;;;;;;11.48;3.13;;;;;;;14.66;80.01;101820.53;5013942;28;20145;-67
2021/08/26 03:37:51;;;;;;;12.38;3.55;;;;;;;14.63;80.43;101823.31;5015798;28;20080;-67
2021/08/26 03:40:19;;;;;;;11.35;3.60;;;;;;;14.65;80.11;101825.94;5013480;28;20069;-67
2021/08/26 03:42:47;;;;;;;13.55;3.65;;;;;;;14.62;80.56;101826.91;5018289;28;20065;-66
2021/08/26 03:45:16;;;;;;;11.20;3.80;;;;;;;14.65;80.91;101826.81;5013412;28;20061;-68
2021/08/26 03:47:44;;;;;;;14.25;3.22;;;;;;;14.67;81.03;101819.56;5015141;28;20060;-67
2021/08/26 03:50:12;;;;;;;10.88;3.60;;;;;;;14.64;81.60;101825.09;5016464;28;20092;-67
2021/08/26 03:52:40;;;;;;;13.70;3.20;;;;;;;14.64;81.14;101822.41;5016374;28;20468;-69
2021/08/26 03:55:09;;;;;;;13.55;3.67;;;;;;;14.67;82.00;101818.72;5015366;28;20456;-69
2021/08/26 03:57:37;;;;;;;11.85;3.53;;;;;;;14.66;82.09;101822.31;5017451;28;20328;-69
2021/08/26 04:00:09;;;;;;;15.38;3.47;;;;;;;14.67;82.70;101824.09;5017396;28;20356;-68
2021/08/26 04:02:38;;;;;;;14.48;4.13;;;;;;;14.66;82.62;101817.84;5015992;28;20164;-69
2021/08/26 04:05:06;;;;;;;16.15;3.92;;;;;;;14.66;83.19;101817.84;5015682;28;20152;-69
2021/08/26 04:07:34;;;;;;;13.23;3.63;;;;;;;14.65;82.82;101820.56;5017929;28;20111;-68
2021/08/26 04:10:02;;;;;;;16.55;3.80;;;;;;;14.70;82.67;101823.97;5016927;28;20665;-68
2021/08/26 04:12:31;;;;;;;15.20;3.67;;;;;;;14.70;83.08;101818.63;5014853;28;20050;-69
2021/08/26 04:14:59;;;;;;;10.90;3.70;;;;;;;14.75;82.79;101827.41;5017159;28;20068;-68
2021/08/26 04:17:27;;;;;;;13.73;3.53;;;;;;;14.76;83.69;101829.13;5015243;28;20545;-68
2021/08/26 04:19:56;;;;;;;11.60;3.50;;;;;;;14.72;84.13;101819.44;5016432;28;20115;-69
2021/08/26 04:22:28;;;;;;;;;;;;;;;14.75;84.99;101822.88;5015885;28;20097;-69
2021/08/26 04:24:56;;;;;;;13.20;3.80;;;;;;;14.69;85.05;101817.75;5017187;28;20032;-69
2021/08/26 04:27:24;;;;;;;11.52;3.58;;;;;;;14.66;85.37;101817.84;5014538;28;20061;-69
2021/08/26 04:29:52;;;;;;;14.93;3.80;;;;;;;14.70;85.83;101818.63;5014351;28;20072;-69
2021/08/26 04:32:19;;;;;;;14.90;4.22;;;;;;;14.69;85.89;101828.50;5014425;28;20107;-70
2021/08/26 04:34:47;;;;;;;13.38;3.55;;;;;;;14.70;85.46;101814.09;5017189;28;20088;-69
2021/08/26 04:37:16;;;;;;;11.38;3.95;;;;;;;14.72;85.91;101819.44;5016053;28;20215;-68
2021/08/26 04:39:44;;;;;;;15.02;4.28;;;;;;;14.69;86.45;101822.22;5015106;28;20061;-68
2021/08/26 04:42:12;;;;;;;17.00;4.30;;;;;;;14.70;85.92;101813.25;5014509;28;20149;-68
2021/08/26 04:44:39;;;;;;;12.63;3.72;;;;;;;14.71;86.23;101810.50;5014367;28;20104;-68
2021/08/26 04:47:07;;;;;;;14.25;3.72;;;;;;;14.71;86.22;101820.34;5011646;28;20062;-68
2021/08/26 04:49:35;;;;;;;14.43;4.32;;;;;;;14.70;86.56;101814.09;5018042;28;20432;-69
2021/08/26 04:52:03;;;;;;;14.75;3.85;;;;;;;14.70;86.61;101808.75;5014348;28;20089;-66
2021/08/26 04:54:32;;;;;;;13.15;3.83;;;;;;;14.73;85.44;101808.63;5016377;28;20116;-68
2021/08/26 04:57:00;;;;;;;18.25;4.05;;;;;;;14.76;84.35;101802.25;5016067;28;20068;-67
2021/08/26 04:59:28;;;;;;;11.85;3.05;;;;;;;14.79;83.70;101806.66;5013643;28;20372;-67
2021/08/26 05:01:56;;;;;;;11.82;3.35;;;;;;;14.79;81.49;101806.66;5014301;28;20578;-67
2021/08/26 05:04:24;;;;;;;11.70;3.05;;;;;;;14.82;79.75;101810.13;5015243;28;21149;-67
2021/08/26 05:06:52;;;;;;;9.60;2.80;;;;;;;14.83;79.37;101808.31;5022760;28;20085;-67
2021/08/26 05:09:21;;;;;;;13.88;3.00;;;;;;;14.87;77.43;101800.09;5012639;28;20092;-67
2021/08/26 05:11:50;;;;;;;9.32;2.72;;;;;;;14.92;77.00;101803.50;5016350;28;20088;-67
2021/08/26 05:14:17;;;;;;;8.32;2.53;;;;;;;14.88;77.29;101800.97;5017905;28;20068;-67
2021/08/26 05:16:45;;;;;;;9.70;3.17;;;;;;;14.88;77.42;101809.03;5015009;28;20107;-67
2021/08/26 05:19:13;;;;;;;9.00;3.40;;;;;;;14.85;78.07;101801.97;5019316;28;20107;-67
2021/08/26 05:21:41;;;;;;;12.13;3.50;;;;;;;14.84;78.35;101804.69;5015282;28;20113;-67
2021/08/26 05:24:08;;;;;;;12.45;2.88;;;;;;;14.85;78.48;101804.66;5017966;28;20054;-67
2021/08/26 05:26:36;;;;;;;10.45;3.03;;;;;;;14.86;78.27;101814.44;5013523;28;20065;-68
2021/08/26 05:29:05;;;;;;;13.50;3.20;;;;;;;14.89;79.49;101813.47;5016047;28;20053;-66
2021/08/26 05:31:33;;;;;;;11.25;3.40;;;;;;;14.86;80.02;101805.53;5019534;28;20071;-66
2021/08/26 05:34:01;;;;;;;11.65;3.25;;;;;;;14.83;80.48;101811.00;5014581;28;20080;-68
2021/08/26 05:36:29;;;;;;;12.75;3.38;;;;;;;14.84;80.50;101805.56;5019370;28;20396;-67
2021/08/26 05:38:57;;;;;;;12.48;2.97;;;;;;;14.87;80.28;101809.97;5013481;28;20777;-67
2021/08/26 05:41:25;;;;;;;8.00;2.70;;;;;;;14.90;80.42;101805.38;5015204;28;20152;-67
2021/08/26 05:43:53;;;;;;;13.15;2.85;;;;;;;14.95;79.76;101807.91;5017152;28;20068;-67
2021/08/26 05:46:22;;;;;;;8.70;2.70;;;;;;;14.96;79.69;101790.84;5014873;28;20062;-67
2021/08/26 05:48:50;;;;;;;8.50;3.20;;;;;;;15.04;78.03;101806.69;5016833;28;20115;-68
2021/08/26 05:51:18;;;;;;;9.57;3.42;;;;;;;15.05;77.63;101792.31;5020593;28;20065;-68
2021/08/26 05:53:45;;;;;;;10.13;2.25;;;;;;;15.07;77.31;101799.41;5022086;28;20478;-68
2021/08/26 05:56:13;;;;;;;6.85;2.38;;;;;;;15.10;76.43;101801.09;5018556;28;20116;-67
2021/08/26 05:58:41;;;;;;;12.07;2.45;;;;;;;15.12;76.59;101804.63;5017183;28;20099;-67
2021/08/26 06:01:09;;;;;;;7.50;2.58;;;;;;;15.15;77.16;101799.13;5019076;28;20092;-67
2021/08/26 06:03:38;;;;;;;6.68;2.75;;;;;;;15.15;76.44;101801.81;5016204;28;20561;-67
2021/08/26 06:06:06;;;;;;;9.90;2.50;;;;;;;15.14;76.73;101802.75;5020869;28;20050;-67
2021/08/26 06:08:34;;;;;;;9.82;2.42;;;;;;;15.17;76.60;101802.66;5017874;28;20069;-67
2021/08/26 06:11:04;;;;;;;12.32;3.30;;;;;;;15.18;76.72;101806.19;5018355;28;20071;-67
2021/08/26 06:13:31;;;;;;;9.80;2.50;;;;;;;15.19;77.03;101803.47;5017724;28;20061;-67
2021/08/26 06:15:59;;;;;;;8.35;2.72;;;;;;;15.23;77.49;101802.41;5017620;28;20061;-67
2021/08/26 06:18:27;;;;;;;13.15;3.28;;;;;;;15.24;77.65;101809.56;5021735;28;20116;-68
2021/08/26 06:20:57;;;;;;;8.27;2.80;;;;;;;15.30;77.86;101801.25;5016701;28;20143;-68
2021/08/26 06:23:25;;;;;;;7.43;2.72;;;;;;;15.26;77.38;101807.69;5015569;28;21487;-66
2021/08/26 06:25:52;;;;;;;9.57;2.47;;;;;;;15.26;77.53;101805.00;5016576;28;20072;-66
2021/08/26 06:28:20;;;;;;;8.65;2.55;;;;;;;15.28;77.32;101811.19;5020525;28;20073;-66
2021/08/26 06:30:48;;;;;;;7.72;3.10;;;;;;;15.28;76.60;101813.00;5019810;28;20068;-67
2021/08/26 06:33:17;;;;;;;8.05;2.58;;;;;;;15.26;76.45;101804.13;5019924;28;20061;-67
2021/08/26 06:35:44;;;;;;;8.45;2.22;;;;;;;15.25;76.73;101816.66;5018948;28;20069;-67
2021/08/26 06:38:14;;;;;;;7.85;2.35;;;;;;;15.21;78.67;101817.72;5018433;28;20066;-67
2021/08/26 06:40:42;;;;;;;6.88;2.47;;;;;;;15.10;80.26;101806.47;5022757;28;20050;-67
2021/08/26 06:43:09;;;;;;;13.40;2.60;;;;;;;15.02;81.23;101796.00;5015859;28;20380;-67
2021/08/26 06:45:37;;;;;;;13.07;4.15;;;;;;;15.06;80.84;101807.50;5018417;28;20120;-69
2021/08/26 06:48:05;;;;;;;9.23;2.25;;;;;;;15.07;81.55;101802.09;5021227;28;20073;-69
2021/08/26 06:50:33;;;;;;;14.18;3.22;;;;;;;15.04;81.75;101806.69;5017779;28;20072;-69
2021/08/26 06:53:01;;;;;;;10.02;2.70;;;;;;;15.05;82.23;101811.13;5019592;28;20252;-70
2021/08/26 06:55:30;;;;;;;14.32;2.22;;;;;;;15.11;82.06;101813.59;5020486;28;20696;-70
2021/08/26 06:57:58;;;;;;;11.18;2.83;;;;;;;15.06;82.58;101821.81;5021018;28;20050;-68
2021/08/26 07:00:26;;;;;;;9.40;3.38;;;;;;;15.12;82.18;101808.19;5019475;28;20322;-67
2021/08/26 07:02:55;;;;;;;12.95;2.75;;;;;;;15.19;81.65;101822.28;5017452;28;20326;-67
2021/08/26 07:05:23;;;;;;;10.80;2.60;;;;;;;15.17;82.25;101823.25;5015115;28;20313;-67
2021/08/26 07:07:51;;;;;;;7.88;2.38;;;;;;;15.22;81.70;101813.22;5016372;28;20315;-67
2021/08/26 07:10:19;;;;;;;10.95;2.83;;;;;;;15.29;80.21;101815.63;5015430;28;20079;-67
2021/08/26 07:12:48;;;;;;;9.82;2.55;;;;;;;15.39;79.62;101816.19;5016305;28;20069;-67
2021/08/26 07:15:17;;;;;;;9.02;2.22;;;;;;;15.66;79.34;101818.75;5017608;28;20061;-67
2021/08/26 07:17:45;;;;;;;9.38;2.47;;;;;;;15.65;78.78;101825.97;5014535;28;20061;-68
2021/08/26 07:20:13;;;;;;;10.70;2.50;;;;;;;15.58;77.90;101816.38;5017073;28;20072;-67
2021/08/26 07:22:41;;;;;;;10.68;2.60;;;;;;;15.60;78.03;101821.69;5019887;28;20068;-67
2021/08/26 07:25:10;;;;;;;11.10;2.70;;;;;;;15.55;78.11;101824.56;5020096;28;20104;-67
2021/08/26 07:27:38;;;;;;;9.63;2.55;;;;;;;15.58;78.16;101826.22;5018320;28;20111;-67
2021/08/26 07:30:09;;;;;;;13.18;2.72;;;;;;;15.58;78.41;101823.53;5020403;28;20065;-67
2021/08/26 07:32:37;;;;;;;8.80;2.30;;;;;;;15.60;79.27;101832.47;5015782;28;20069;-67
2021/08/26 07:35:05;;;;;;;8.20;2.72;;;;;;;15.45;80.08;101844.66;5019230;28;20274;-67
2021/08/26 07:37:33;;;;;;;7.75;2.50;;;;;;;15.28;80.98;101847.97;5020128;28;20500;-67
2021/08/26 07:40:01;;;;;;;8.82;1.98;;;;;;;15.35;81.19;101837.84;5019281;28;20057;-67
2021/08/26 07:42:29;;;;;;;5.28;1.95;;;;;;;15.26;80.44;101823.81;5021096;28;20061;-66
2021/08/26 07:45:02;;;;;;;4.90;2.00;;;;;;;15.49;80.53;101824.78;5017465;28;20675;-66
2021/08/26 07:47:32;;;;;;;5.20;1.75;;;;;;;16.05;79.50;101813.66;5016902;28;20525;-66
2021/08/26 07:50:05;;;;;;;6.57;2.10;;;;;;;16.90;77.44;101807.53;5016654;28;20049;-66
2021/08/26 07:52:33;;;;;;;5.03;1.70;;;;;;;17.40;76.15;101808.94;5018021;28;20069;-67
2021/08/26 07:55:05;;;;;;;5.70;2.03;;;;;;;17.15;75.63;101811.84;5016263;28;20046;-67
2021/08/26 07:57:34;;;;;;;3.50;1.60;;;;;;;17.25;74.85;101809.63;5016789;28;20455;-67
2021/08/26 08:00:02;;;;;;;6.32;1.75;;;;;;;17.49;74.61;101802.25;5015778;28;20447;-67
2021/08/26 08:02:31;;;;;;;5.10;1.67;;;;;;;17.87;73.38;101800.47;5015618;28;20670;-67
2021/08/26 08:05:00;;;;;;;4.25;1.55;;;;;;;17.83;72.42;101800.69;5015926;28;20328;-68
2021/08/26 08:07:28;;;;;;;7.18;1.63;;;;;;;17.41;72.97;101790.94;5014593;28;20440;-67
2021/08/26 08:09:56;;;;;;;4.38;1.70;;;;;;;17.10;73.15;101793.19;5019769;28;20685;-67
2021/08/26 08:12:23;;;;;;;3.70;1.33;;;;;;;17.00;73.84;101802.63;5015029;28;20506;-66
2021/08/26 08:14:51;;;;;;;8.02;1.50;;;;;;;16.84;74.05;101798.78;5017269;28;20095;-66
2021/08/26 08:17:19;;;;;;;7.15;1.92;;;;;;;16.92;72.64;101804.75;5019739;28;20069;-66
2021/08/26 08:19:49;;;;;;;6.70;1.73;;;;;;;16.91;72.65;101803.03;5013823;28;20411;-67
2021/08/26 08:22:16;;;;;;;5.45;1.60;;;;;;;16.90;72.87;101806.66;5018514;28;20163;-67
2021/08/26 08:24:44;;;;;;;5.30;1.55;;;;;;;16.55;74.66;101801.81;5016936;28;20068;-67
2021/08/26 08:27:12;;;;;;;4.28;1.60;;;;;;;16.77;74.92;101799.06;5017999;28;20088;-67
2021/08/26 08:29:39;;;;;;;5.43;1.65;;;;;;;16.80;74.90;101798.94;5011507;28;20061;-67
2021/08/26 08:32:08;;;;;;;6.57;1.92;;;;;;;16.92;74.42;101797.53;5013934;28;20061;-67
2021/08/26 08:34:36;;;;;;;3.15;1.63;;;;;;;16.92;72.34;101793.97;5015520;28;20045;-67
2021/08/26 08:37:05;;;;;;;5.07;1.80;;;;;;;16.83;72.13;101795.22;5011699;28;20431;-67
2021/08/26 08:39:33;;;;;;;3.58;1.60;;;;;;;16.36;74.94;101812.47;5013927;28;20072;-68
2021/08/26 08:42:01;;;;;;;14.90;2.63;;;;;;;16.46;76.28;101804.84;5011059;28;20065;-68
2021/08/26 08:44:29;;;;;;;6.45;1.98;;;;;;;16.11;80.00;101814.41;5013474;28;20365;-68
2021/08/26 08:46:58;;;;;;;6.80;1.90;;;;;;;15.63;83.71;101810.81;5014012;28;20069;-68
2021/08/26 08:49:26;;;;;;;7.07;1.95;;;;;;;15.74;82.81;101802.34;5014822;28;20150;-68
2021/08/26 08:51:56;;;;;;;7.03;2.15;;;;;;;16.05;82.29;101792.13;5012548;28;20061;-68
2021/08/26 08:54:26;;;;;;;4.65;1.55;;;;;;;16.04;79.70;101800.31;5014531;28;20073;-69
2021/08/26 08:56:53;;;;;;;5.20;1.80;;;;;;;16.51;76.35;101794.78;5015198;28;20471;-69
2021/08/26 08:59:21;;;;;;;6.60;1.83;;;;;;;16.62;74.35;101807.81;5012503;28;20076;-68
2021/08/26 09:01:53;;;;;;;5.90;1.90;;;;;;;17.00;72.82;101802.63;5016078;28;20319;-68
2021/08/26 09:04:21;;;;;;;9.57;2.35;;;;;;;16.88;74.02;101795.06;5015580;28;20145;-67
2021/08/26 09:06:50;;;;;;;6.75;2.45;;;;;;;17.80;71.89;101793.59;5011890;28;20070;-67
2021/08/26 09:09:20;;;;;;;6.18;2.13;;;;;;;17.44;72.93;101798.88;5010667;28;20061;-67
2021/08/26 09:11:54;;;;;;;12.15;2.83;;;;;;;17.20;75.03;101799.03;5013406;28;20531;-67
2021/08/26 09:14:28;;;;;;;10.13;3.08;;;;;;;17.08;75.51;101799.59;5013082;28;20108;-67
2021/08/26 09:16:58;;;;;;;;;;;;;;;16.95;76.87;101801.94;5012625;28;20381;-67
2021/08/26 09:19:29;;;;;;;9.35;2.95;;;;;;;16.92;77.66;101799.38;5016491;28;19955;-67
2021/08/26 09:21:58;;;;;;;10.65;2.65;;;;;;;16.75;78.43;101800.97;5015792;28;20082;-67
2021/08/26 09:24:43;;;;;;;9.07;3.33;;;;;;;16.94;77.84;101803.78;5014920;28;20160;-68
2021/08/26 09:27:13;;;;;;;10.25;3.05;;;;;;;17.26;76.73;101798.75;5013174;28;20069;-68
2021/08/26 09:29:59;;;;;;;9.77;3.17;;;;;;;17.52;75.15;101802.97;5015839;28;20396;-68
2021/08/26 09:32:33;;;;;;;9.30;2.63;;;;;;;17.76;73.65;101804.59;5016179;28;20100;-68
2021/08/26 09:35:19;;;;;;;8.48;2.88;;;;;;;17.72;72.57;101795.75;5017796;28;20065;-68
2021/08/26 09:37:50;;;;;;;10.95;3.53;;;;;;;17.75;71.61;101795.63;5013743;28;20065;-68
2021/08/26 09:40:20;;;;;;;10.32;2.78;;;;;;;17.40;72.28;101794.56;5015191;28;20705;-68
2021/08/26 09:42:58;;;;;;;12.27;3.05;;;;;;;17.21;73.06;101794.53;5019844;28;20093;-68
2021/08/26 09:45:27;;;;;;;11.60;2.97;;;;;;;17.21;72.87;101798.09;5016302;28;20328;-68
2021/08/26 09:48:05;;;;;;;10.68;3.25;;;;;;;17.10;73.42;101790.47;5017465;28;20511;-69
2021/08/26 09:50:37;;;;;;;8.07;2.50;;;;;;;17.22;72.50;101793.59;5017115;28;20065;-68
2021/08/26 09:53:06;;;;;;;7.47;2.70;;;;;;;17.49;72.34;101791.47;5016565;28;20053;-68
2021/08/26 09:55:55;;;;;;;12.60;2.90;;;;;;;17.70;71.52;101782.34;5017928;28;20069;-68
2021/08/26 09:58:26;;;;;;;11.02;2.95;;;;;;;17.70;71.34;101787.75;5013186;28;20069;-68
2021/08/26 10:01:08;;;;;;;11.20;2.75;;;;;;;17.44;71.21;101786.25;5022046;28;20045;-66
2021/08/26 10:03:37;;;;;;;9.43;2.78;;;;;;;17.68;71.63;101783.38;5012856;28;20119;-66
2021/08/26 10:06:05;;;;;;;10.95;2.85;;;;;;;17.63;71.80;101788.13;5013563;28;20073;-67
2021/08/26 10:08:34;;;;;;;10.45;2.80;;;;;;;17.75;71.75;101787.53;5013294;28;20611;-67
2021/08/26 10:11:03;;;;;;;12.57;2.90;;;;;;;17.73;72.53;101779.50;5014565;28;20061;-66
2021/08/26 10:13:32;;;;;;;13.88;3.20;;;;;;;17.65;70.61;101786.22;5011714;28;20069;-67
2021/08/26 10:16:00;;;;;;;8.90;2.92;;;;;;;17.47;71.71;101788.81;5015418;28;20424;-68
2021/08/26 10:18:30;;;;;;;11.70;3.35;;;;;;;17.59;70.74;101782.00;5011884;28;20057;-66
2021/08/26 10:20:59;;;;;;;9.60;3.22;;;;;;;17.68;70.08;101784.25;5016854;28;20065;-66
2021/08/26 10:23:27;;;;;;;15.13;3.78;;;;;;;17.81;70.44;101779.16;5018856;28;20073;-67
2021/08/26 10:26:01;;;;;;;12.85;4.55;;;;;;;17.80;69.81;101785.50;5015109;28;20112;-66
2021/08/26 10:28:29;;;;;;;12.02;3.47;;;;;;;17.44;70.98;101786.25;5016106;28;20615;-66
2021/08/26 10:30:59;;;;;;;11.75;3.45;;;;;;;16.95;71.55;101786.63;5019951;28;20069;-66
2021/08/26 10:33:28;;;;;;;11.45;3.33;;;;;;;17.14;71.72;101792.09;5010797;28;20481;-66
2021/08/26 10:36:07;;;;;;;15.10;3.97;;;;;;;17.57;70.50;101791.97;5012092;28;20852;-66
2021/08/26 10:38:37;;;;;;;12.35;4.00;;;;;;;17.59;70.13;101791.88;5016857;28;20050;-66
2021/08/26 10:41:29;;;;;;;13.52;3.75;;;;;;;17.72;70.56;101798.47;5014464;28;20108;-67
2021/08/26 10:44:11;;;;;;;15.73;4.13;;;;;;;17.85;70.63;101785.28;5014396;28;20045;-66
2021/08/26 10:46:50;;;;;;;16.30;4.30;;;;;;;17.88;71.00;101790.56;5017355;28;20045;-67
2021/08/26 10:49:19;;;;;;;11.35;3.65;;;;;;;18.04;69.51;101802.38;5014587;28;20459;-68
2021/08/26 10:51:48;;;;;;;12.95;3.63;;;;;;;17.82;69.55;101799.78;5016213;28;20139;-67
2021/08/26 10:54:25;;;;;;;17.13;3.70;;;;;;;17.65;69.64;101792.47;5016022;28;20072;-67
2021/08/26 10:56:53;;;;;;;14.80;3.60;;;;;;;17.73;69.46;101800.22;5015432;28;20072;-67
2021/08/26 10:59:28;;;;;;;12.90;3.85;;;;;;;18.01;69.34;101791.72;5020985;28;20069;-68
2021/08/26 11:01:58;;;;;;;16.40;4.15;;;;;;;17.84;69.72;101795.22;5016738;28;20139;-69
2021/08/26 11:04:33;;;;;;;14.32;4.15;;;;;;;18.05;69.02;101789.75;5015119;28;20108;-69
2021/08/26 11:07:01;;;;;;;16.75;4.65;;;;;;;18.02;70.04;101787.19;5012387;28;20140;-70
2021/08/26 11:09:34;;;;;;;13.68;4.65;;;;;;;17.82;71.73;101799.78;5014276;28;20396;-70
2021/08/26 11:12:23;;;;;;;14.65;4.85;;;;;;;17.98;71.99;101793.69;5014008;28;20057;-69
2021/08/26 11:14:52;;;;;;;15.63;3.92;;;;;;;17.57;71.12;101804.56;5017294;28;20311;-69
2021/08/26 11:17:33;;;;;;;14.20;4.18;;;;;;;17.71;71.79;101800.28;5019196;28;20456;-69
2021/08/26 11:20:29;;;;;;;18.50;4.60;;;;;;;17.70;71.16;101793.13;5017652;28;20372;-69
2021/08/26 11:23:12;;;;;;;16.50;4.05;;;;;;;17.91;70.65;101795.78;5019967;28;20080;-69
2021/08/26 11:25:40;;;;;;;11.23;3.83;;;;;;;17.73;70.40;101798.41;5011185;28;20518;-67
2021/08/26 11:28:30;;;;;;;17.58;4.45;;;;;;;17.99;69.57;101799.00;5015565;28;20103;-67
2021/08/26 11:31:28;;;;;;;11.77;3.65;;;;;;;17.90;69.81;101796.75;5013365;28;20783;-67
2021/08/26 11:34:00;;;;;;;11.80;3.67;;;;;;;17.96;69.92;101799.16;5013387;28;20047;-68
2021/08/26 11:36:28;;;;;;;14.45;3.65;;;;;;;18.14;69.49;101796.53;5015823;28;20097;-67